sensor_id;sensor_type;location;lat;lon;timestamp;temperature;humidity
18041;DHT22;9145;48.588;9.250;2023-04-03T00:00:06;6.20;99.90
18041;DHT22;9145;48.588;9.250;2023-04-03T00:02:34;6.20;99.90
18041;DHT22;9145;48.588;9.250;2023-04-03T00:05:01;6.10;99.90
18041;DHT22;9145;48.588;9.250;2023-04-03T00:07:29;6.10;99.90
18041;DHT22;9145;48.588;9.250;2023-04-03T00:09:56;6.00;99.90
18041;DHT22;9145;48.588;9.250;2023-04-03T00:12:22;6.00;99.90
18041;DHT22;9145;48.588;9.250;2023-04-03T00:14:49;5.90;99.90
18041;DHT22;9145;48.588;9.250;2023-04-03T00:17:16;5.80;99.90
18041;DHT22;9145;48.588;9.250;2023-04-03T00:19:43;5.70;99.90
18041;DHT22;9145;48.588;9.250;2023-04-03T00:22:10;5.80;99.90
18041;DHT22;9145;48.588;9.250;2023-04-03T00:24:38;5.70;99.90
18041;DHT22;9145;48.588;9.250;2023-04-03T00:27:05;5.60;99.90
18041;DHT22;9145;48.588;9.250;2023-04-03T00:29:32;5.70;99.90
18041;DHT22;9145;48.588;9.250;2023-04-03T00:31:58;5.70;99.90
18041;DHT22;9145;48.588;9.250;2023-04-03T00:34:25;5.70;99.90
18041;DHT22;9145;48.588;9.250;2023-04-03T00:36:52;5.70;99.90
18041;DHT22;9145;48.588;9.250;2023-04-03T00:39:19;5.60;99.90
18041;DHT22;9145;48.588;9.250;2023-04-03T00:41:47;5.50;99.90
18041;DHT22;9145;48.588;9.250;2023-04-03T00:44:21;5.60;99.90
18041;DHT22;9145;48.588;9.250;2023-04-03T00:46:49;5.50;99.90
18041;DHT22;9145;48.588;9.250;2023-04-03T00:49:16;5.50;99.90
18041;DHT22;9145;48.588;9.250;2023-04-03T00:51:43;5.40;99.90
18041;DHT22;9145;48.588;9.250;2023-04-03T00:54:10;5.40;99.90
18041;DHT22;9145;48.588;9.250;2023-04-03T00:56:37;5.50;99.90
18041;DHT22;9145;48.588;9.250;2023-04-03T00:59:10;5.50;99.90
18041;DHT22;9145;48.588;9.250;2023-04-03T01:01:37;5.50;99.90
18041;DHT22;9145;48.588;9.250;2023-04-03T01:04:05;5.50;99.90
18041;DHT22;9145;48.588;9.250;2023-04-03T01:06:34;5.40;99.90
18041;DHT22;9145;48.588;9.250;2023-04-03T01:09:01;5.40;99.90
18041;DHT22;9145;48.588;9.250;2023-04-03T01:11:28;5.30;99.90
18041;DHT22;9145;48.588;9.250;2023-04-03T01:13:56;5.30;99.90
18041;DHT22;9145;48.588;9.250;2023-04-03T01:16:24;5.30;99.90
18041;DHT22;9145;48.588;9.250;2023-04-03T01:18:51;5.30;99.90
18041;DHT22;9145;48.588;9.250;2023-04-03T01:21:40;5.40;99.90
18041;DHT22;9145;48.588;9.250;2023-04-03T01:24:22;5.40;99.90
18041;DHT22;9145;48.588;9.250;2023-04-03T01:26:52;5.40;99.90
18041;DHT22;9145;48.588;9.250;2023-04-03T01:29:19;5.30;99.90
18041;DHT22;9145;48.588;9.250;2023-04-03T01:31:52;5.40;99.90
18041;DHT22;9145;48.588;9.250;2023-04-03T01:34:19;5.30;99.90
18041;DHT22;9145;48.588;9.250;2023-04-03T01:36:46;5.30;99.90
18041;DHT22;9145;48.588;9.250;2023-04-03T01:39:14;5.20;99.90
18041;DHT22;9145;48.588;9.250;2023-04-03T01:41:40;5.20;99.90
18041;DHT22;9145;48.588;9.250;2023-04-03T01:44:07;5.30;99.90
18041;DHT22;9145;48.588;9.250;2023-04-03T01:46:34;5.30;99.90
18041;DHT22;9145;48.588;9.250;2023-04-03T01:49:04;5.30;99.90
18041;DHT22;9145;48.588;9.250;2023-04-03T01:51:31;5.30;99.90
18041;DHT22;9145;48.588;9.250;2023-04-03T01:53:58;5.30;99.90
18041;DHT22;9145;48.588;9.250;2023-04-03T01:56:25;5.20;99.90
18041;DHT22;9145;48.588;9.250;2023-04-03T01:58:52;5.20;99.90
18041;DHT22;9145;48.588;9.250;2023-04-03T02:01:19;5.20;99.90
18041;DHT22;9145;48.588;9.250;2023-04-03T02:03:46;5.20;99.90
18041;DHT22;9145;48.588;9.250;2023-04-03T02:06:14;5.20;99.90
18041;DHT22;9145;48.588;9.250;2023-04-03T02:08:41;5.20;99.90
18041;DHT22;9145;48.588;9.250;2023-04-03T02:11:08;5.20;99.90
18041;DHT22;9145;48.588;9.250;2023-04-03T02:13:35;5.20;99.90
18041;DHT22;9145;48.588;9.250;2023-04-03T02:16:06;5.20;99.90
18041;DHT22;9145;48.588;9.250;2023-04-03T02:18:33;5.30;99.90
18041;DHT22;9145;48.588;9.250;2023-04-03T02:21:00;5.20;99.90
18041;DHT22;9145;48.588;9.250;2023-04-03T02:23:28;5.20;99.90
18041;DHT22;9145;48.588;9.250;2023-04-03T02:26:03;5.20;99.90
18041;DHT22;9145;48.588;9.250;2023-04-03T02:28:30;5.20;99.90
18041;DHT22;9145;48.588;9.250;2023-04-03T02:30:57;5.20;99.90
18041;DHT22;9145;48.588;9.250;2023-04-03T02:33:24;5.20;99.90
18041;DHT22;9145;48.588;9.250;2023-04-03T02:35:53;5.20;99.90
18041;DHT22;9145;48.588;9.250;2023-04-03T02:38:20;5.20;99.90
18041;DHT22;9145;48.588;9.250;2023-04-03T02:40:48;5.20;99.90
18041;DHT22;9145;48.588;9.250;2023-04-03T02:43:15;5.20;99.90
18041;DHT22;9145;48.588;9.250;2023-04-03T02:45:41;5.20;99.90
18041;DHT22;9145;48.588;9.250;2023-04-03T02:48:08;5.20;99.90
18041;DHT22;9145;48.588;9.250;2023-04-03T02:50:35;5.20;99.90
18041;DHT22;9145;48.588;9.250;2023-04-03T02:53:02;5.20;99.90
18041;DHT22;9145;48.588;9.250;2023-04-03T02:55:29;5.30;99.90
18041;DHT22;9145;48.588;9.250;2023-04-03T02:57:57;5.20;99.90
18041;DHT22;9145;48.588;9.250;2023-04-03T03:00:24;5.20;99.90
18041;DHT22;9145;48.588;9.250;2023-04-03T03:02:50;5.20;99.90
18041;DHT22;9145;48.588;9.250;2023-04-03T03:05:17;5.20;99.90
18041;DHT22;9145;48.588;9.250;2023-04-03T03:07:44;5.30;99.90
18041;DHT22;9145;48.588;9.250;2023-04-03T03:10:11;5.30;99.90
18041;DHT22;9145;48.588;9.250;2023-04-03T03:12:38;5.20;99.90
18041;DHT22;9145;48.588;9.250;2023-04-03T03:15:08;5.20;99.90
18041;DHT22;9145;48.588;9.250;2023-04-03T03:17:35;5.30;99.90
18041;DHT22;9145;48.588;9.250;2023-04-03T03:20:02;5.30;99.90
18041;DHT22;9145;48.588;9.250;2023-04-03T03:22:29;5.20;99.90
18041;DHT22;9145;48.588;9.250;2023-04-03T03:24:56;5.30;99.90
18041;DHT22;9145;48.588;9.250;2023-04-03T03:27:22;5.30;99.90
18041;DHT22;9145;48.588;9.250;2023-04-03T03:29:50;5.30;99.90
18041;DHT22;9145;48.588;9.250;2023-04-03T03:32:18;5.30;99.90
18041;DHT22;9145;48.588;9.250;2023-04-03T03:34:45;5.30;99.90
18041;DHT22;9145;48.588;9.250;2023-04-03T03:37:12;5.30;99.90
18041;DHT22;9145;48.588;9.250;2023-04-03T03:39:38;5.30;99.90
18041;DHT22;9145;48.588;9.250;2023-04-03T03:42:05;5.30;99.90
18041;DHT22;9145;48.588;9.250;2023-04-03T03:44:32;5.30;99.90
18041;DHT22;9145;48.588;9.250;2023-04-03T03:46:59;5.30;99.90
18041;DHT22;9145;48.588;9.250;2023-04-03T03:49:27;5.30;99.90
18041;DHT22;9145;48.588;9.250;2023-04-03T03:51:55;5.30;99.90
18041;DHT22;9145;48.588;9.250;2023-04-03T03:54:22;5.30;99.90
18041;DHT22;9145;48.588;9.250;2023-04-03T03:56:48;5.20;99.90
18041;DHT22;9145;48.588;9.250;2023-04-03T03:59:15;5.20;99.90
18041;DHT22;9145;48.588;9.250;2023-04-03T04:01:42;5.20;99.90
18041;DHT22;9145;48.588;9.250;2023-04-03T04:04:09;5.20;99.90
18041;DHT22;9145;48.588;9.250;2023-04-03T04:06:37;5.20;99.90
18041;DHT22;9145;48.588;9.250;2023-04-03T04:09:04;5.20;99.90
18041;DHT22;9145;48.588;9.250;2023-04-03T04:11:31;5.10;99.90
18041;DHT22;9145;48.588;9.250;2023-04-03T04:13:58;5.20;99.90
18041;DHT22;9145;48.588;9.250;2023-04-03T04:16:25;5.20;99.90
18041;DHT22;9145;48.588;9.250;2023-04-03T04:18:52;5.20;99.90
18041;DHT22;9145;48.588;9.250;2023-04-03T04:21:19;5.20;99.90
18041;DHT22;9145;48.588;9.250;2023-04-03T04:23:47;5.10;99.90
18041;DHT22;9145;48.588;9.250;2023-04-03T04:26:14;5.10;99.90
18041;DHT22;9145;48.588;9.250;2023-04-03T04:28:41;5.30;99.90
18041;DHT22;9145;48.588;9.250;2023-04-03T04:31:07;5.30;99.90
18041;DHT22;9145;48.588;9.250;2023-04-03T04:33:34;5.30;99.90
18041;DHT22;9145;48.588;9.250;2023-04-03T04:36:01;5.30;99.90
18041;DHT22;9145;48.588;9.250;2023-04-03T04:38:28;5.20;99.90
18041;DHT22;9145;48.588;9.250;2023-04-03T04:40:56;5.20;99.90
18041;DHT22;9145;48.588;9.250;2023-04-03T04:43:23;5.20;99.90
18041;DHT22;9145;48.588;9.250;2023-04-03T04:46:00;5.20;99.90
18041;DHT22;9145;48.588;9.250;2023-04-03T04:48:27;5.30;99.90
18041;DHT22;9145;48.588;9.250;2023-04-03T04:50:53;5.30;99.90
18041;DHT22;9145;48.588;9.250;2023-04-03T04:53:20;5.30;99.90
18041;DHT22;9145;48.588;9.250;2023-04-03T04:55:47;5.30;99.90
18041;DHT22;9145;48.588;9.250;2023-04-03T04:58:16;5.30;99.90
18041;DHT22;9145;48.588;9.250;2023-04-03T05:00:43;5.30;99.90
18041;DHT22;9145;48.588;9.250;2023-04-03T05:03:10;5.30;99.90
18041;DHT22;9145;48.588;9.250;2023-04-03T05:05:38;5.30;99.90
18041;DHT22;9145;48.588;9.250;2023-04-03T05:08:05;5.30;99.90
18041;DHT22;9145;48.588;9.250;2023-04-03T05:10:33;5.30;99.90
18041;DHT22;9145;48.588;9.250;2023-04-03T05:13:00;5.30;99.90
18041;DHT22;9145;48.588;9.250;2023-04-03T05:15:28;5.30;99.90
18041;DHT22;9145;48.588;9.250;2023-04-03T05:17:55;5.30;99.90
18041;DHT22;9145;48.588;9.250;2023-04-03T05:20:22;5.30;99.90
18041;DHT22;9145;48.588;9.250;2023-04-03T05:22:49;5.30;99.90
18041;DHT22;9145;48.588;9.250;2023-04-03T05:25:16;5.30;99.90
18041;DHT22;9145;48.588;9.250;2023-04-03T05:27:43;5.30;99.90
18041;DHT22;9145;48.588;9.250;2023-04-03T05:30:10;5.40;99.90
18041;DHT22;9145;48.588;9.250;2023-04-03T05:32:38;5.40;99.90
18041;DHT22;9145;48.588;9.250;2023-04-03T05:35:07;5.40;99.90
18041;DHT22;9145;48.588;9.250;2023-04-03T05:37:34;5.40;99.90
18041;DHT22;9145;48.588;9.250;2023-04-03T05:40:01;5.50;99.90
18041;DHT22;9145;48.588;9.250;2023-04-03T05:42:27;5.50;99.90
18041;DHT22;9145;48.588;9.250;2023-04-03T05:44:55;5.50;99.90
18041;DHT22;9145;48.588;9.250;2023-04-03T05:47:22;5.50;99.90
18041;DHT22;9145;48.588;9.250;2023-04-03T05:49:50;5.40;99.90
18041;DHT22;9145;48.588;9.250;2023-04-03T05:52:21;5.40;99.90
18041;DHT22;9145;48.588;9.250;2023-04-03T05:54:48;5.40;99.90
18041;DHT22;9145;48.588;9.250;2023-04-03T05:57:15;5.40;99.90
18041;DHT22;9145;48.588;9.250;2023-04-03T05:59:42;5.40;99.90
18041;DHT22;9145;48.588;9.250;2023-04-03T06:02:11;5.50;99.90
18041;DHT22;9145;48.588;9.250;2023-04-03T06:04:38;5.50;99.90
18041;DHT22;9145;48.588;9.250;2023-04-03T06:07:06;5.60;99.90
18041;DHT22;9145;48.588;9.250;2023-04-03T06:09:33;5.60;99.90
18041;DHT22;9145;48.588;9.250;2023-04-03T06:12:01;5.60;99.90
18041;DHT22;9145;48.588;9.250;2023-04-03T06:14:27;5.60;99.90
18041;DHT22;9145;48.588;9.250;2023-04-03T06:16:54;5.70;99.90
18041;DHT22;9145;48.588;9.250;2023-04-03T06:19:21;5.70;99.90
18041;DHT22;9145;48.588;9.250;2023-04-03T06:21:48;5.80;99.90
18041;DHT22;9145;48.588;9.250;2023-04-03T06:24:17;5.80;99.90
18041;DHT22;9145;48.588;9.250;2023-04-03T06:26:45;5.80;99.90
18041;DHT22;9145;48.588;9.250;2023-04-03T06:29:12;5.80;99.90
18041;DHT22;9145;48.588;9.250;2023-04-03T06:31:39;5.90;99.90
18041;DHT22;9145;48.588;9.250;2023-04-03T06:34:06;5.90;99.90
18041;DHT22;9145;48.588;9.250;2023-04-03T06:36:33;5.90;99.90
18041;DHT22;9145;48.588;9.250;2023-04-03T06:39:00;5.90;99.90
18041;DHT22;9145;48.588;9.250;2023-04-03T06:41:28;5.90;99.90
18041;DHT22;9145;48.588;9.250;2023-04-03T06:43:55;6.00;99.90
18041;DHT22;9145;48.588;9.250;2023-04-03T06:46:24;5.90;99.90
18041;DHT22;9145;48.588;9.250;2023-04-03T06:48:52;6.00;99.90
18041;DHT22;9145;48.588;9.250;2023-04-03T06:51:21;6.00;99.90
18041;DHT22;9145;48.588;9.250;2023-04-03T06:53:49;6.10;99.90
18041;DHT22;9145;48.588;9.250;2023-04-03T06:56:17;6.10;99.90
18041;DHT22;9145;48.588;9.250;2023-04-03T06:58:45;6.20;99.90
18041;DHT22;9145;48.588;9.250;2023-04-03T07:01:13;6.10;99.90
18041;DHT22;9145;48.588;9.250;2023-04-03T07:03:41;6.20;99.90
18041;DHT22;9145;48.588;9.250;2023-04-03T07:06:11;6.20;99.90
18041;DHT22;9145;48.588;9.250;2023-04-03T07:08:39;6.30;99.90
18041;DHT22;9145;48.588;9.250;2023-04-03T07:11:06;6.30;99.90
18041;DHT22;9145;48.588;9.250;2023-04-03T07:13:33;6.30;99.90
18041;DHT22;9145;48.588;9.250;2023-04-03T07:16:01;6.30;99.90
18041;DHT22;9145;48.588;9.250;2023-04-03T07:18:29;6.30;99.90
18041;DHT22;9145;48.588;9.250;2023-04-03T07:20:56;6.30;99.90
18041;DHT22;9145;48.588;9.250;2023-04-03T07:23:23;6.40;99.90
18041;DHT22;9145;48.588;9.250;2023-04-03T07:25:51;6.50;99.90
18041;DHT22;9145;48.588;9.250;2023-04-03T07:28:19;6.40;99.90
18041;DHT22;9145;48.588;9.250;2023-04-03T07:30:49;6.50;99.90
18041;DHT22;9145;48.588;9.250;2023-04-03T07:33:19;6.60;99.90
18041;DHT22;9145;48.588;9.250;2023-04-03T07:35:46;6.60;99.90
18041;DHT22;9145;48.588;9.250;2023-04-03T07:38:14;6.70;99.90
18041;DHT22;9145;48.588;9.250;2023-04-03T07:40:45;6.60;99.90
18041;DHT22;9145;48.588;9.250;2023-04-03T07:43:13;6.60;99.90
18041;DHT22;9145;48.588;9.250;2023-04-03T07:45:40;6.70;99.90
18041;DHT22;9145;48.588;9.250;2023-04-03T07:48:07;6.60;99.90
18041;DHT22;9145;48.588;9.250;2023-04-03T07:50:35;6.70;99.90
18041;DHT22;9145;48.588;9.250;2023-04-03T07:53:02;6.80;99.90
18041;DHT22;9145;48.588;9.250;2023-04-03T07:55:29;6.90;99.90
18041;DHT22;9145;48.588;9.250;2023-04-03T07:57:56;7.10;99.90
18041;DHT22;9145;48.588;9.250;2023-04-03T08:00:23;7.30;99.90
18041;DHT22;9145;48.588;9.250;2023-04-03T08:02:50;7.40;99.90
18041;DHT22;9145;48.588;9.250;2023-04-03T08:05:17;7.50;99.90
18041;DHT22;9145;48.588;9.250;2023-04-03T08:07:46;7.60;99.90
18041;DHT22;9145;48.588;9.250;2023-04-03T08:10:13;7.60;99.90
18041;DHT22;9145;48.588;9.250;2023-04-03T08:12:40;7.70;99.90
18041;DHT22;9145;48.588;9.250;2023-04-03T08:15:08;7.80;99.90
18041;DHT22;9145;48.588;9.250;2023-04-03T08:17:35;7.80;99.90
18041;DHT22;9145;48.588;9.250;2023-04-03T08:20:03;7.90;99.90
18041;DHT22;9145;48.588;9.250;2023-04-03T08:22:32;7.80;99.90
18041;DHT22;9145;48.588;9.250;2023-04-03T08:25:00;7.90;99.90
18041;DHT22;9145;48.588;9.250;2023-04-03T08:27:27;8.00;99.90
18041;DHT22;9145;48.588;9.250;2023-04-03T08:29:54;8.00;99.90
18041;DHT22;9145;48.588;9.250;2023-04-03T08:32:21;8.10;99.90
18041;DHT22;9145;48.588;9.250;2023-04-03T08:34:48;8.20;99.90
18041;DHT22;9145;48.588;9.250;2023-04-03T08:37:15;8.10;99.90
18041;DHT22;9145;48.588;9.250;2023-04-03T08:39:43;8.20;99.90
18041;DHT22;9145;48.588;9.250;2023-04-03T08:42:17;8.10;99.90
18041;DHT22;9145;48.588;9.250;2023-04-03T08:44:47;8.20;99.90
18041;DHT22;9145;48.588;9.250;2023-04-03T08:47:23;8.20;99.90
18041;DHT22;9145;48.588;9.250;2023-04-03T08:49:53;8.20;99.90
18041;DHT22;9145;48.588;9.250;2023-04-03T08:52:25;8.20;99.90
18041;DHT22;9145;48.588;9.250;2023-04-03T08:54:56;8.20;99.90
18041;DHT22;9145;48.588;9.250;2023-04-03T08:57:30;8.30;99.90
18041;DHT22;9145;48.588;9.250;2023-04-03T08:59:59;8.30;99.90
18041;DHT22;9145;48.588;9.250;2023-04-03T09:02:31;8.30;99.90
18041;DHT22;9145;48.588;9.250;2023-04-03T09:04:59;8.30;99.90
18041;DHT22;9145;48.588;9.250;2023-04-03T09:07:33;8.30;99.90
18041;DHT22;9145;48.588;9.250;2023-04-03T09:10:02;8.40;99.90
18041;DHT22;9145;48.588;9.250;2023-04-03T09:12:37;8.50;99.90
18041;DHT22;9145;48.588;9.250;2023-04-03T09:15:13;8.60;99.90
18041;DHT22;9145;48.588;9.250;2023-04-03T09:17:49;8.50;99.90
18041;DHT22;9145;48.588;9.250;2023-04-03T09:20:23;8.60;99.90
18041;DHT22;9145;48.588;9.250;2023-04-03T09:22:51;8.80;99.90
18041;DHT22;9145;48.588;9.250;2023-04-03T09:25:21;8.90;99.90
18041;DHT22;9145;48.588;9.250;2023-04-03T09:27:50;8.90;99.90
18041;DHT22;9145;48.588;9.250;2023-04-03T09:30:19;8.90;99.90
18041;DHT22;9145;48.588;9.250;2023-04-03T09:32:48;8.80;99.90
18041;DHT22;9145;48.588;9.250;2023-04-03T09:35:20;8.80;99.90
18041;DHT22;9145;48.588;9.250;2023-04-03T09:37:49;8.70;99.90
18041;DHT22;9145;48.588;9.250;2023-04-03T09:40:34;8.80;99.90
18041;DHT22;9145;48.588;9.250;2023-04-03T09:43:23;9.00;99.90
18041;DHT22;9145;48.588;9.250;2023-04-03T09:45:52;9.10;99.90
18041;DHT22;9145;48.588;9.250;2023-04-03T09:48:20;9.20;99.90
18041;DHT22;9145;48.588;9.250;2023-04-03T09:50:59;9.10;99.90
18041;DHT22;9145;48.588;9.250;2023-04-03T09:53:35;9.10;99.90
18041;DHT22;9145;48.588;9.250;2023-04-03T09:56:09;9.10;99.90
18041;DHT22;9145;48.588;9.250;2023-04-03T09:58:48;8.90;99.90
18041;DHT22;9145;48.588;9.250;2023-04-03T10:01:23;8.90;99.90
18041;DHT22;9145;48.588;9.250;2023-04-03T10:04:07;8.80;99.90
18041;DHT22;9145;48.588;9.250;2023-04-03T10:06:37;8.70;99.90
18041;DHT22;9145;48.588;9.250;2023-04-03T10:09:17;8.60;99.90
18041;DHT22;9145;48.588;9.250;2023-04-03T10:11:58;8.70;99.90
18041;DHT22;9145;48.588;9.250;2023-04-03T10:14:28;8.80;99.90
18041;DHT22;9145;48.588;9.250;2023-04-03T10:17:02;8.90;99.90
18041;DHT22;9145;48.588;9.250;2023-04-03T10:19:36;8.90;99.90
18041;DHT22;9145;48.588;9.250;2023-04-03T10:22:20;8.90;99.90
18041;DHT22;9145;48.588;9.250;2023-04-03T10:24:59;9.00;99.90
18041;DHT22;9145;48.588;9.250;2023-04-03T10:27:36;8.90;99.90
18041;DHT22;9145;48.588;9.250;2023-04-03T10:33:02;8.80;99.90
18041;DHT22;9145;48.588;9.250;2023-04-03T10:35:46;8.80;99.90
18041;DHT22;9145;48.588;9.250;2023-04-03T10:38:22;8.90;99.90
18041;DHT22;9145;48.588;9.250;2023-04-03T10:40:57;9.00;99.90
18041;DHT22;9145;48.588;9.250;2023-04-03T10:43:33;9.00;99.90
18041;DHT22;9145;48.588;9.250;2023-04-03T10:46:06;9.10;99.90
18041;DHT22;9145;48.588;9.250;2023-04-03T10:48:58;9.10;99.90
18041;DHT22;9145;48.588;9.250;2023-04-03T10:51:31;8.90;99.90
18041;DHT22;9145;48.588;9.250;2023-04-03T10:54:03;9.00;99.90
18041;DHT22;9145;48.588;9.250;2023-04-03T10:56:37;9.10;99.90
18041;DHT22;9145;48.588;9.250;2023-04-03T10:59:14;9.20;99.90
18041;DHT22;9145;48.588;9.250;2023-04-03T11:01:46;9.30;99.90
18041;DHT22;9145;48.588;9.250;2023-04-03T11:04:15;9.40;99.90
18041;DHT22;9145;48.588;9.250;2023-04-03T11:06:45;9.30;99.90
18041;DHT22;9145;48.588;9.250;2023-04-03T11:09:21;9.40;99.90
18041;DHT22;9145;48.588;9.250;2023-04-03T11:11:53;9.30;99.90
18041;DHT22;9145;48.588;9.250;2023-04-03T11:14:26;9.30;99.90
18041;DHT22;9145;48.588;9.250;2023-04-03T11:17:05;9.20;99.90
18041;DHT22;9145;48.588;9.250;2023-04-03T11:19:36;9.10;99.90
18041;DHT22;9145;48.588;9.250;2023-04-03T11:22:10;9.00;99.90
18041;DHT22;9145;48.588;9.250;2023-04-03T11:24:39;8.90;99.90
18041;DHT22;9145;48.588;9.250;2023-04-03T11:27:15;8.90;99.90
18041;DHT22;9145;48.588;9.250;2023-04-03T11:29:44;8.90;99.90
18041;DHT22;9145;48.588;9.250;2023-04-03T11:32:41;8.90;99.90
18041;DHT22;9145;48.588;9.250;2023-04-03T11:35:13;8.90;99.90
18041;DHT22;9145;48.588;9.250;2023-04-03T11:37:44;9.10;99.90
18041;DHT22;9145;48.588;9.250;2023-04-03T11:40:21;9.20;99.90
18041;DHT22;9145;48.588;9.250;2023-04-03T11:42:50;9.30;99.90
18041;DHT22;9145;48.588;9.250;2023-04-03T11:45:36;9.40;99.90
18041;DHT22;9145;48.588;9.250;2023-04-03T11:48:06;9.30;99.90
18041;DHT22;9145;48.588;9.250;2023-04-03T11:50:42;9.30;99.90
18041;DHT22;9145;48.588;9.250;2023-04-03T11:53:28;9.20;99.90
18041;DHT22;9145;48.588;9.250;2023-04-03T11:56:29;9.00;99.90
18041;DHT22;9145;48.588;9.250;2023-04-03T11:59:22;9.00;99.90
18041;DHT22;9145;48.588;9.250;2023-04-03T12:01:50;9.00;99.90
18041;DHT22;9145;48.588;9.250;2023-04-03T12:04:18;9.00;99.90
18041;DHT22;9145;48.588;9.250;2023-04-03T12:09:58;9.20;99.90
18041;DHT22;9145;48.588;9.250;2023-04-03T12:12:31;9.30;99.90
18041;DHT22;9145;48.588;9.250;2023-04-03T12:18:31;9.40;99.90
18041;DHT22;9145;48.588;9.250;2023-04-03T12:20:58;9.40;99.90
18041;DHT22;9145;48.588;9.250;2023-04-03T12:23:28;9.50;99.90
18041;DHT22;9145;48.588;9.250;2023-04-03T12:26:03;9.50;99.90
18041;DHT22;9145;48.588;9.250;2023-04-03T12:28:36;9.70;99.90
18041;DHT22;9145;48.588;9.250;2023-04-03T12:31:04;9.70;99.90
18041;DHT22;9145;48.588;9.250;2023-04-03T12:33:43;9.70;99.90
18041;DHT22;9145;48.588;9.250;2023-04-03T12:36:18;9.70;99.90
18041;DHT22;9145;48.588;9.250;2023-04-03T12:39:06;9.70;99.90
18041;DHT22;9145;48.588;9.250;2023-04-03T12:41:44;9.70;99.90
18041;DHT22;9145;48.588;9.250;2023-04-03T12:44:38;9.70;99.90
18041;DHT22;9145;48.588;9.250;2023-04-03T12:47:21;9.60;99.90
18041;DHT22;9145;48.588;9.250;2023-04-03T12:49:49;9.60;99.90
18041;DHT22;9145;48.588;9.250;2023-04-03T12:52:20;9.70;99.90
18041;DHT22;9145;48.588;9.250;2023-04-03T12:54:49;9.60;99.90
18041;DHT22;9145;48.588;9.250;2023-04-03T12:57:19;9.50;99.90
18041;DHT22;9145;48.588;9.250;2023-04-03T12:59:48;9.50;99.90
18041;DHT22;9145;48.588;9.250;2023-04-03T13:02:23;9.30;99.90
18041;DHT22;9145;48.588;9.250;2023-04-03T13:04:51;9.30;99.90
18041;DHT22;9145;48.588;9.250;2023-04-03T13:07:21;9.40;99.90
18041;DHT22;9145;48.588;9.250;2023-04-03T13:10:04;9.40;99.90
18041;DHT22;9145;48.588;9.250;2023-04-03T13:12:45;9.60;99.90
18041;DHT22;9145;48.588;9.250;2023-04-03T13:15:17;9.80;99.90
18041;DHT22;9145;48.588;9.250;2023-04-03T13:17:44;9.90;99.90
18041;DHT22;9145;48.588;9.250;2023-04-03T13:20:14;9.80;99.90
18041;DHT22;9145;48.588;9.250;2023-04-03T13:22:54;9.70;99.90
18041;DHT22;9145;48.588;9.250;2023-04-03T13:25:24;9.70;99.90
18041;DHT22;9145;48.588;9.250;2023-04-03T13:27:53;9.60;99.90
18041;DHT22;9145;48.588;9.250;2023-04-03T13:30:32;9.50;99.90
18041;DHT22;9145;48.588;9.250;2023-04-03T13:33:02;9.40;99.90
18041;DHT22;9145;48.588;9.250;2023-04-03T13:35:35;9.40;99.90
18041;DHT22;9145;48.588;9.250;2023-04-03T13:38:06;9.30;99.90
18041;DHT22;9145;48.588;9.250;2023-04-03T13:40:48;9.30;99.90
18041;DHT22;9145;48.588;9.250;2023-04-03T13:43:19;9.30;99.90
18041;DHT22;9145;48.588;9.250;2023-04-03T13:46:05;9.30;99.90
18041;DHT22;9145;48.588;9.250;2023-04-03T13:48:49;9.30;99.90
18041;DHT22;9145;48.588;9.250;2023-04-03T13:51:21;9.40;99.90
18041;DHT22;9145;48.588;9.250;2023-04-03T13:53:51;9.40;99.90
18041;DHT22;9145;48.588;9.250;2023-04-03T13:56:24;9.50;99.90
18041;DHT22;9145;48.588;9.250;2023-04-03T13:59:03;9.50;99.90
18041;DHT22;9145;48.588;9.250;2023-04-03T14:01:51;9.70;99.90
18041;DHT22;9145;48.588;9.250;2023-04-03T14:04:20;9.70;99.90
18041;DHT22;9145;48.588;9.250;2023-04-03T14:06:48;9.80;99.90
18041;DHT22;9145;48.588;9.250;2023-04-03T14:09:16;9.90;99.90
18041;DHT22;9145;48.588;9.250;2023-04-03T14:11:44;9.90;99.90
18041;DHT22;9145;48.588;9.250;2023-04-03T14:14:14;9.90;99.90
18041;DHT22;9145;48.588;9.250;2023-04-03T14:16:44;9.80;99.90
18041;DHT22;9145;48.588;9.250;2023-04-03T14:19:22;9.70;99.90
18041;DHT22;9145;48.588;9.250;2023-04-03T14:21:50;9.70;99.90
18041;DHT22;9145;48.588;9.250;2023-04-03T14:24:18;9.60;99.90
18041;DHT22;9145;48.588;9.250;2023-04-03T14:26:45;9.60;99.90
18041;DHT22;9145;48.588;9.250;2023-04-03T14:29:13;9.60;99.90
18041;DHT22;9145;48.588;9.250;2023-04-03T14:31:41;9.60;99.90
18041;DHT22;9145;48.588;9.250;2023-04-03T14:34:09;9.50;99.90
18041;DHT22;9145;48.588;9.250;2023-04-03T14:36:39;9.50;99.90
18041;DHT22;9145;48.588;9.250;2023-04-03T14:39:08;9.50;99.90
18041;DHT22;9145;48.588;9.250;2023-04-03T14:41:37;9.50;99.90
18041;DHT22;9145;48.588;9.250;2023-04-03T14:44:04;9.30;99.90
18041;DHT22;9145;48.588;9.250;2023-04-03T14:46:34;9.30;99.90
18041;DHT22;9145;48.588;9.250;2023-04-03T14:49:02;9.30;99.90
18041;DHT22;9145;48.588;9.250;2023-04-03T14:51:33;9.40;99.90
18041;DHT22;9145;48.588;9.250;2023-04-03T14:54:01;9.50;99.90
18041;DHT22;9145;48.588;9.250;2023-04-03T14:56:28;9.50;99.90
18041;DHT22;9145;48.588;9.250;2023-04-03T14:58:58;9.60;99.90
18041;DHT22;9145;48.588;9.250;2023-04-03T15:01:25;9.60;99.90
18041;DHT22;9145;48.588;9.250;2023-04-03T15:03:52;9.60;99.90
18041;DHT22;9145;48.588;9.250;2023-04-03T15:06:19;9.60;99.90
18041;DHT22;9145;48.588;9.250;2023-04-03T15:08:47;9.60;99.90
18041;DHT22;9145;48.588;9.250;2023-04-03T15:11:15;9.50;99.90
18041;DHT22;9145;48.588;9.250;2023-04-03T15:13:42;9.50;99.90
18041;DHT22;9145;48.588;9.250;2023-04-03T15:16:15;9.50;99.90
18041;DHT22;9145;48.588;9.250;2023-04-03T15:18:43;9.40;99.90
18041;DHT22;9145;48.588;9.250;2023-04-03T15:21:11;9.30;99.90
18041;DHT22;9145;48.588;9.250;2023-04-03T15:23:38;9.40;99.90
18041;DHT22;9145;48.588;9.250;2023-04-03T15:26:05;9.30;99.90
18041;DHT22;9145;48.588;9.250;2023-04-03T15:28:36;9.30;99.90
18041;DHT22;9145;48.588;9.250;2023-04-03T15:31:04;9.20;99.90
18041;DHT22;9145;48.588;9.250;2023-04-03T15:33:31;9.10;99.90
18041;DHT22;9145;48.588;9.250;2023-04-03T15:35:58;9.10;99.90
18041;DHT22;9145;48.588;9.250;2023-04-03T15:38:25;9.10;99.90
18041;DHT22;9145;48.588;9.250;2023-04-03T15:40:53;9.10;99.90
18041;DHT22;9145;48.588;9.250;2023-04-03T15:43:20;9.10;99.90
18041;DHT22;9145;48.588;9.250;2023-04-03T15:45:49;9.20;99.90
18041;DHT22;9145;48.588;9.250;2023-04-03T15:48:16;9.30;99.90
18041;DHT22;9145;48.588;9.250;2023-04-03T15:50:43;9.40;99.90
18041;DHT22;9145;48.588;9.250;2023-04-03T15:53:10;9.50;99.90
18041;DHT22;9145;48.588;9.250;2023-04-03T15:55:38;9.50;99.90
18041;DHT22;9145;48.588;9.250;2023-04-03T15:58:05;9.60;99.90
18041;DHT22;9145;48.588;9.250;2023-04-03T16:00:32;9.60;99.90
18041;DHT22;9145;48.588;9.250;2023-04-03T16:03:04;9.70;99.90
18041;DHT22;9145;48.588;9.250;2023-04-03T16:05:31;10.20;99.90
18041;DHT22;9145;48.588;9.250;2023-04-03T16:07:59;10.40;99.90
18041;DHT22;9145;48.588;9.250;2023-04-03T16:10:26;10.50;99.90
18041;DHT22;9145;48.588;9.250;2023-04-03T16:12:53;10.40;99.90
18041;DHT22;9145;48.588;9.250;2023-04-03T16:15:20;10.30;99.90
18041;DHT22;9145;48.588;9.250;2023-04-03T16:17:47;10.10;99.90
18041;DHT22;9145;48.588;9.250;2023-04-03T16:20:16;9.90;99.90
18041;DHT22;9145;48.588;9.250;2023-04-03T16:22:44;9.90;99.90
18041;DHT22;9145;48.588;9.250;2023-04-03T16:25:11;9.70;99.90
18041;DHT22;9145;48.588;9.250;2023-04-03T16:27:38;9.60;99.90